Time;durP1;ratioP1;P1;durP2;ratioP2;P2;SDS_P1;SDS_P2;PMS_P1;PMS_P2;Temp;Humidity;BMP_temperature;BMP_pressure;BME280_temperature;BME280_humidity;BME280_pressure;Samples;Min_cycle;Max_cycle;Signal;HPM_P1;HPM_P2
2023/12/20 00:02:14;;;;;;;9.80;1.40;;;6.40;99.90;;;;;;5051727;28;20067;-79
2023/12/20 00:04:40;;;;;;;2.10;1.25;;;6.30;99.90;;;;;;5054658;28;20046;-78
2023/12/20 00:07:06;;;;;;;4.43;0.50;;;6.20;99.90;;;;;;5065775;28;20028;-77
2023/12/20 00:09:32;;;;;;;0.77;0.35;;;6.20;99.90;;;;;;5044941;28;20036;-78
2023/12/20 00:11:58;;;;;;;7.60;0.73;;;6.20;99.90;;;;;;5061237;28;20028;-78
2023/12/20 00:14:24;;;;;;;5.03;0.80;;;6.10;99.90;;;;;;5058749;28;20421;-78
2023/12/20 00:16:50;;;;;;;1.70;0.73;;;6.10;99.90;;;;;;5070593;28;20044;-79
2023/12/20 00:19:16;;;;;;;8.77;0.90;;;6.10;99.90;;;;;;5053648;28;20040;-79
2023/12/20 00:21:48;;;;;;;7.22;1.02;;;6.00;99.90;;;;;;5074250;28;20049;-79
2023/12/20 00:24:14;;;;;;;2.30;0.40;;;6.00;99.90;;;;;;5045044;28;20036;-78
2023/12/20 00:26:39;;;;;;;6.63;1.17;;;6.00;99.90;;;;;;5036196;28;20044;-79
2023/12/20 00:29:05;;;;;;;5.90;0.85;;;6.00;99.90;;;;;;5040761;28;20489;-77
2023/12/20 00:31:31;;;;;;;4.72;0.70;;;6.00;99.90;;;;;;5057531;28;20028;-78
2023/12/20 00:34:00;;;;;;;11.02;0.90;;;6.10;99.90;;;;;;5075674;28;20029;-79
2023/12/20 00:36:26;;;;;;;6.53;0.75;;;6.10;99.90;;;;;;5058580;28;20072;-79
2023/12/20 00:38:52;;;;;;;2.58;1.30;;;6.10;99.90;;;;;;5055252;28;20045;-78
2023/12/20 00:41:18;;;;;;;0.90;0.60;;;6.00;99.90;;;;;;5054148;28;20049;-77
2023/12/20 00:43:44;;;;;;;6.25;1.15;;;6.00;99.90;;;;;;5047699;28;20093;-79
2023/12/20 00:46:10;;;;;;;1.95;0.95;;;5.90;99.90;;;;;;5057566;28;20472;-79
2023/12/20 00:48:36;;;;;;;7.88;0.90;;;5.90;99.90;;;;;;5056039;28;20190;-78
2023/12/20 00:51:02;;;;;;;0.52;0.32;;;5.90;99.90;;;;;;5040200;28;20040;-78
2023/12/20 00:53:28;;;;;;;2.03;0.60;;;6.00;99.90;;;;;;5056398;28;20079;-78
2023/12/20 00:55:54;;;;;;;5.72;1.35;;;6.00;99.90;;;;;;5061140;28;20117;-79
2023/12/20 00:58:29;;;;;;;5.82;0.80;;;6.10;99.90;;;;;;5044618;28;20040;-79
2023/12/20 01:00:55;;;;;;;5.05;0.70;;;6.10;99.90;;;;;;5042173;28;20044;-78
2023/12/20 01:03:22;;;;;;;1.92;0.35;;;6.10;99.90;;;;;;5059846;28;20036;-77
2023/12/20 01:05:48;;;;;;;3.40;0.70;;;6.10;99.90;;;;;;5061233;28;20048;-79
2023/12/20 01:08:14;;;;;;;1.73;0.35;;;6.10;99.90;;;;;;5046000;28;20040;-79
2023/12/20 01:10:40;;;;;;;6.50;1.55;;;6.10;99.90;;;;;;5065405;28;20400;-79
2023/12/20 01:13:06;;;;;;;4.68;0.75;;;6.10;99.90;;;;;;5061049;28;20170;-79
2023/12/20 01:15:32;;;;;;;0.65;0.40;;;6.20;99.90;;;;;;5068332;28;20110;-79
2023/12/20 01:17:59;;;;;;;2.03;0.77;;;6.20;99.90;;;;;;5045310;28;20032;-80
2023/12/20 01:20:43;;;;;;;6.68;1.95;;;6.20;99.90;;;;;;5040176;28;20037;-79
2023/12/20 01:23:09;;;;;;;4.13;0.85;;;6.20;99.90;;;;;;5060595;28;20051;-79
2023/12/20 01:25:35;;;;;;;0.95;0.50;;;6.10;99.90;;;;;;5056692;28;20032;-80
2023/12/20 01:28:03;;;;;;;7.85;1.15;;;6.10;99.90;;;;;;5048496;28;20123;-78
2023/12/20 01:30:28;;;;;;;5.70;0.70;;;6.10;99.90;;;;;;5048425;28;20044;-78
2023/12/20 01:32:54;;;;;;;2.22;0.50;;;6.10;99.90;;;;;;5060729;28;20038;-75
2023/12/20 01:35:20;;;;;;;8.55;1.85;;;6.20;99.90;;;;;;5056676;28;20040;-78
2023/12/20 01:37:46;;;;;;;7.03;1.52;;;6.20;99.90;;;;;;5076335;28;20036;-75
2023/12/20 01:40:12;;;;;;;1.15;0.75;;;6.20;99.90;;;;;;5064876;28;20028;-76
2023/12/20 01:42:38;;;;;;;1.55;0.90;;;6.30;99.90;;;;;;5064722;28;20079;-76
2023/12/20 01:45:04;;;;;;;3.53;1.35;;;6.30;99.90;;;;;;5064345;28;20068;-76
2023/12/20 01:47:30;;;;;;;1.13;0.38;;;6.30;99.90;;;;;;5066908;28;20051;-77
2023/12/20 01:49:56;;;;;;;2.30;0.88;;;6.30;99.90;;;;;;5063916;28;20028;-77
2023/12/20 01:52:23;;;;;;;2.03;1.05;;;6.30;99.90;;;;;;5067059;28;20418;-76
2023/12/20 01:54:49;;;;;;;2.15;0.98;;;6.30;99.90;;;;;;5044201;28;20056;-77
2023/12/20 01:57:15;;;;;;;2.88;0.98;;;6.20;99.90;;;;;;5055579;28;20040;-76
2023/12/20 01:59:41;;;;;;;12.35;1.20;;;6.20;99.90;;;;;;5067570;28;20040;-76
2023/12/20 02:02:08;;;;;;;2.45;0.73;;;6.30;99.90;;;;;;5060477;28;20051;-77
2023/12/20 02:04:34;;;;;;;1.98;0.80;;;6.30;99.90;;;;;;5064368;28;20040;-76
2023/12/20 02:07:00;;;;;;;4.38;1.20;;;6.30;99.90;;;;;;5066287;28;20577;-77
2023/12/20 02:09:28;;;;;;;4.05;0.85;;;6.30;99.90;;;;;;5034718;28;20123;-77
2023/12/20 02:11:54;;;;;;;7.03;1.00;;;6.30;99.90;;;;;;5046929;28;20484;-78
2023/12/20 02:14:20;;;;;;;3.63;1.58;;;6.30;99.90;;;;;;5057264;28;20033;-77
2023/12/20 02:16:46;;;;;;;7.30;0.70;;;6.40;99.90;;;;;;5055907;28;20047;-80
2023/12/20 02:19:17;;;;;;;1.27;0.80;;;6.40;99.90;;;;;;5046826;28;20040;-76
2023/12/20 02:21:43;;;;;;;2.13;0.90;;;6.50;99.90;;;;;;5060698;28;20496;-82
2023/12/20 02:24:09;;;;;;;9.20;1.48;;;6.50;99.90;;;;;;5076139;28;20120;-81
2023/12/20 02:26:35;;;;;;;9.13;3.30;;;6.60;99.90;;;;;;5064335;28;20036;-82
2023/12/20 02:29:01;;;;;;;4.85;1.05;;;6.60;99.90;;;;;;5051157;28;20043;-81
2023/12/20 02:31:27;;;;;;;6.28;1.58;;;6.60;99.90;;;;;;5055013;28;20111;-80
2023/12/20 02:33:52;;;;;;;6.50;1.20;;;6.70;99.90;;;;;;5058428;28;20045;-76
2023/12/20 02:36:18;;;;;;;7.40;0.95;;;6.70;99.90;;;;;;5040810;28;20044;-84
2023/12/20 02:38:44;;;;;;;9.00;1.48;;;6.70;99.90;;;;;;5060051;28;20045;-83
2023/12/20 02:41:10;;;;;;;10.75;1.42;;;6.70;99.90;;;;;;5049339;28;20054;-83
2023/12/20 02:43:36;;;;;;;7.80;1.48;;;6.70;99.90;;;;;;5040252;28;20041;-81
2023/12/20 02:46:02;;;;;;;3.33;0.90;;;6.70;99.90;;;;;;5040082;28;20045;-78
2023/12/20 02:48:27;;;;;;;8.82;1.67;;;6.80;99.90;;;;;;5033765;28;20038;-81
2023/12/20 02:50:54;;;;;;;16.95;2.28;;;6.80;99.90;;;;;;5038899;28;20048;-79
2023/12/20 02:53:20;;;;;;;7.88;1.38;;;6.80;99.90;;;;;;5037383;28;20048;-80
2023/12/20 02:55:46;;;;;;;7.93;1.50;;;6.80;99.90;;;;;;5039911;28;20038;-79
2023/12/20 02:58:11;;;;;;;17.02;2.03;;;6.80;99.90;;;;;;5043566;28;20029;-81
2023/12/20 03:00:37;;;;;;;10.52;1.08;;;6.70;99.90;;;;;;5031869;28;20401;-81
2023/12/20 03:03:03;;;;;;;8.27;1.17;;;6.80;99.90;;;;;;5042275;28;20040;-80
2023/12/20 03:05:29;;;;;;;9.05;1.77;;;6.80;99.90;;;;;;5024833;28;20727;-81
2023/12/20 03:07:55;;;;;;;14.18;2.35;;;6.70;99.90;;;;;;5040308;28;20095;-81
2023/12/20 03:10:21;;;;;;;10.90;1.25;;;6.70;99.90;;;;;;5039682;28;20508;-81
2023/12/20 03:12:47;;;;;;;3.47;1.05;;;6.70;99.90;;;;;;5035738;28;20041;-79
2023/12/20 03:15:13;;;;;;;2.20;1.55;;;6.70;99.90;;;;;;5031708;28;20091;-79
2023/12/20 03:17:38;;;;;;;3.78;0.75;;;6.80;99.90;;;;;;5019307;28;20124;-82
2023/12/20 03:20:05;;;;;;;10.25;1.73;;;6.80;99.90;;;;;;5025288;28;20418;-79
2023/12/20 03:22:31;;;;;;;9.85;1.50;;;6.70;99.90;;;;;;5041194;28;20045;-74
2023/12/20 03:24:57;;;;;;;10.40;1.80;;;6.80;99.90;;;;;;5026998;28;20076;-78
2023/12/20 03:27:22;;;;;;;6.18;1.17;;;6.80;99.90;;;;;;5022637;28;20033;-81
2023/12/20 03:29:49;;;;;;;6.03;0.73;;;6.80;99.90;;;;;;5040533;28;20063;-81
2023/12/20 03:32:14;;;;;;;6.20;1.10;;;6.80;99.90;;;;;;5035690;28;20069;-82
2023/12/20 03:34:40;;;;;;;8.07;1.70;;;6.80;99.90;;;;;;5042525;28;20045;-82
2023/12/20 03:37:06;;;;;;;9.60;1.27;;;6.80;99.90;;;;;;5021448;28;20037;-80
2023/12/20 03:39:32;;;;;;;2.75;0.90;;;6.70;99.90;;;;;;5031500;28;20041;-80
2023/12/20 03:41:57;;;;;;;7.03;1.38;;;6.70;99.90;;;;;;5054010;28;20059;-81
2023/12/20 03:44:23;;;;;;;4.57;0.60;;;6.70;99.90;;;;;;5043260;28;20037;-83
2023/12/20 03:46:49;;;;;;;11.77;2.15;;;6.80;99.90;;;;;;5062620;28;20428;-82
2023/12/20 03:49:15;;;;;;;4.78;1.02;;;6.80;99.90;;;;;;5038916;28;20067;-81
2023/12/20 03:51:42;;;;;;;5.82;1.95;;;6.80;99.90;;;;;;5062074;28;20532;-82
2023/12/20 03:54:08;;;;;;;10.88;1.27;;;6.80;99.90;;;;;;5062320;28;20499;-80
2023/12/20 03:56:34;;;;;;;5.40;1.58;;;6.90;99.90;;;;;;5033239;28;20041;-78
2023/12/20 03:58:59;;;;;;;7.63;1.58;;;6.90;99.90;;;;;;5040262;28;20037;-82
2023/12/20 04:01:25;;;;;;;5.22;2.10;;;6.90;99.90;;;;;;5030289;28;20033;-82
2023/12/20 04:03:51;;;;;;;9.80;2.42;;;6.90;99.90;;;;;;5042731;28;20486;-82
2023/12/20 04:06:20;;;;;;;12.48;1.52;;;7.00;99.90;;;;;;5055037;28;20512;-81
2023/12/20 04:08:46;;;;;;;5.05;1.27;;;7.00;99.90;;;;;;5058950;28;20484;-80
2023/12/20 04:11:11;;;;;;;2.15;1.17;;;7.00;99.90;;;;;;5055862;28;20052;-83
2023/12/20 04:13:37;;;;;;;6.18;1.88;;;7.00;99.90;;;;;;5028684;28;20095;-82
2023/12/20 04:16:03;;;;;;;5.13;1.45;;;7.10;99.90;;;;;;5060507;28;20069;-82
2023/12/20 04:18:29;;;;;;;8.38;1.88;;;7.10;99.90;;;;;;5054050;28;20116;-80
2023/12/20 04:20:55;;;;;;;2.20;1.20;;;7.10;99.90;;;;;;5062988;28;20079;-81
2023/12/20 04:23:21;;;;;;;3.92;0.95;;;7.20;99.90;;;;;;5058569;28;20037;-76
2023/12/20 04:25:47;;;;;;;3.92;1.27;;;7.20;99.90;;;;;;5062291;28;20055;-82
2023/12/20 04:28:12;;;;;;;11.10;1.95;;;7.20;99.90;;;;;;5063019;28;20119;-82
2023/12/20 04:30:38;;;;;;;6.13;1.48;;;7.20;99.90;;;;;;5045377;28;20036;-81
2023/12/20 04:33:04;;;;;;;12.40;2.03;;;7.20;99.90;;;;;;5058705;28;20029;-81
2023/12/20 04:35:30;;;;;;;4.68;2.17;;;7.20;99.90;;;;;;5063999;28;20037;-80
2023/12/20 04:37:56;;;;;;;5.80;1.75;;;7.10;99.90;;;;;;5064837;28;20617;-82
2023/12/20 04:40:22;;;;;;;4.60;1.60;;;7.20;99.90;;;;;;5024541;28;20054;-81
2023/12/20 04:42:47;;;;;;;2.80;1.35;;;7.20;99.90;;;;;;5040663;28;20124;-79
2023/12/20 04:45:15;;;;;;;6.30;1.23;;;7.20;99.90;;;;;;5026760;28;20048;-79
2023/12/20 04:47:42;;;;;;;7.43;1.17;;;7.20;99.90;;;;;;5023475;28;20045;-82
2023/12/20 04:50:09;;;;;;;6.55;2.80;;;7.30;99.90;;;;;;5041303;28;20120;-81
2023/12/20 04:52:35;;;;;;;3.85;1.63;;;7.30;99.90;;;;;;5020938;28;20049;-82
2023/12/20 04:55:01;;;;;;;12.18;1.23;;;7.40;99.90;;;;;;5040271;28;20033;-81
2023/12/20 04:57:27;;;;;;;1.92;1.00;;;7.40;99.90;;;;;;5024817;28;20037;-81
2023/12/20 04:59:53;;;;;;;4.70;1.30;;;7.40;99.90;;;;;;5038305;28;20033;-79
2023/12/20 05:02:43;;;;;;;4.90;1.20;;;7.50;99.90;;;;;;5014351;28;20449;-78
2023/12/20 05:05:08;;;;;;;6.35;0.77;;;7.50;99.90;;;;;;5041838;28;20037;-76
2023/12/20 05:07:34;;;;;;;14.15;2.10;;;7.50;99.90;;;;;;5032760;28;20050;-76
2023/12/20 05:10:00;;;;;;;5.65;1.30;;;7.50;99.90;;;;;;5020757;28;20043;-76
2023/12/20 05:12:26;;;;;;;8.15;1.88;;;7.50;99.90;;;;;;5037313;28;20052;-76
2023/12/20 05:15:06;;;;;;;6.45;1.58;;;7.50;99.90;;;;;;5037645;28;20029;-76
2023/12/20 05:17:32;;;;;;;3.60;1.35;;;7.50;99.90;;;;;;5034286;28;20041;-77
2023/12/20 05:19:58;;;;;;;6.13;0.85;;;7.50;99.90;;;;;;5017125;28;20116;-76
2023/12/20 05:22:24;;;;;;;7.30;1.17;;;7.50;99.90;;;;;;5016898;28;20033;-76
2023/12/20 05:24:50;;;;;;;9.63;2.85;;;7.60;99.90;;;;;;5040133;28;20041;-76
2023/12/20 05:27:15;;;;;;;6.30;0.95;;;7.60;99.90;;;;;;5036512;28;20037;-79
2023/12/20 05:29:41;;;;;;;8.13;1.95;;;7.60;99.90;;;;;;5037678;28;20471;-78
2023/12/20 05:32:07;;;;;;;7.07;1.55;;;7.60;99.90;;;;;;5019748;28;20036;-75
2023/12/20 05:34:33;;;;;;;5.32;1.55;;;7.60;99.90;;;;;;5034188;28;20041;-77
2023/12/20 05:36:59;;;;;;;2.72;1.10;;;7.60;99.90;;;;;;5037050;28;20045;-76
2023/12/20 05:39:25;;;;;;;6.53;1.45;;;7.60;99.90;;;;;;5026886;28;20049;-78
2023/12/20 05:41:51;;;;;;;9.40;1.40;;;7.60;99.90;;;;;;5036733;28;20093;-76
2023/12/20 05:44:17;;;;;;;9.93;1.83;;;7.70;99.90;;;;;;5030919;28;20438;-75
2023/12/20 05:46:43;;;;;;;12.35;1.35;;;7.70;99.90;;;;;;5031888;28;20041;-76
2023/12/20 05:49:10;;;;;;;17.55;1.60;;;7.70;99.90;;;;;;5034970;28;20076;-79
2023/12/20 05:51:36;;;;;;;9.82;1.45;;;7.70;99.90;;;;;;5024498;28;20099;-74
2023/12/20 05:54:02;;;;;;;3.33;1.50;;;7.70;99.90;;;;;;5036998;28;20033;-75
2023/12/20 05:56:28;;;;;;;9.93;3.33;;;7.70;99.90;;;;;;5032853;28;20045;-75
2023/12/20 05:58:53;;;;;;;11.38;1.20;;;7.70;99.90;;;;;;5029806;28;20112;-75
2023/12/20 06:01:19;;;;;;;10.15;1.10;;;7.70;99.90;;;;;;5014977;28;20041;-75
2023/12/20 06:03:48;;;;;;;9.20;1.50;;;7.70;99.90;;;;;;5021521;28;20079;-75
2023/12/20 06:06:14;;;;;;;7.00;1.60;;;7.70;99.90;;;;;;5036146;28;20041;-76
2023/12/20 06:08:41;;;;;;;15.40;1.75;;;7.70;99.90;;;;;;5034865;28;20037;-75
2023/12/20 06:11:06;;;;;;;7.50;1.90;;;7.80;99.90;;;;;;5036322;28;20045;-75
2023/12/20 06:13:32;;;;;;;4.88;1.58;;;7.80;99.90;;;;;;5020393;28;20033;-75
2023/12/20 06:15:58;;;;;;;6.53;1.95;;;7.80;99.90;;;;;;5011600;28;20030;-74
2023/12/20 06:18:24;;;;;;;9.05;1.05;;;7.80;99.90;;;;;;5027524;28;20486;-74
2023/12/20 06:20:50;;;;;;;14.75;1.70;;;7.90;99.90;;;;;;5027804;28;20046;-74
2023/12/20 06:23:16;;;;;;;4.60;1.75;;;7.90;99.90;;;;;;5014783;28;20056;-74
2023/12/20 06:25:42;;;;;;;14.55;1.92;;;7.90;99.90;;;;;;5030902;28;20072;-75
2023/12/20 06:28:10;;;;;;;8.70;2.33;;;7.90;99.90;;;;;;5031311;28;20084;-76
2023/12/20 06:30:36;;;;;;;7.40;1.63;;;8.00;99.90;;;;;;5039617;28;20122;-76
2023/12/20 06:33:02;;;;;;;7.38;1.52;;;7.90;99.90;;;;;;5008269;28;20370;-75
2023/12/20 06:35:28;;;;;;;4.82;1.25;;;8.00;99.90;;;;;;5030978;28;20037;-76
2023/12/20 06:37:54;;;;;;;4.85;0.90;;;8.00;99.90;;;;;;5034027;28;20049;-76
2023/12/20 06:40:20;;;;;;;7.07;2.05;;;8.00;99.90;;;;;;5031720;28;20049;-76
2023/12/20 06:42:46;;;;;;;7.88;1.30;;;7.90;99.90;;;;;;5032176;28;20051;-76
2023/12/20 06:45:12;;;;;;;11.30;1.90;;;8.00;99.90;;;;;;5022040;28;20029;-76
2023/12/20 06:47:38;;;;;;;11.25;2.05;;;8.00;99.90;;;;;;5033571;28;20118;-77
2023/12/20 06:50:05;;;;;;;9.38;1.60;;;8.00;99.90;;;;;;5014220;28;20084;-76
2023/12/20 06:52:31;;;;;;;9.68;1.95;;;7.90;99.90;;;;;;5039154;28;20124;-77
2023/12/20 06:54:56;;;;;;;9.77;2.08;;;8.00;99.90;;;;;;5021008;28;20120;-76
2023/12/20 06:57:23;;;;;;;18.33;2.28;;;8.00;99.90;;;;;;5036055;28;20052;-76
2023/12/20 06:59:49;;;;;;;8.02;1.70;;;8.00;99.90;;;;;;5025676;28;20041;-77
2023/12/20 07:02:15;;;;;;;11.60;1.52;;;8.00;99.90;;;;;;5024264;28;20051;-76
2023/12/20 07:04:41;;;;;;;4.28;0.95;;;8.00;99.90;;;;;;5027287;28;20124;-76
2023/12/20 07:07:07;;;;;;;9.05;2.28;;;8.00;99.90;;;;;;5017738;28;20052;-76
2023/12/20 07:09:33;;;;;;;7.03;1.30;;;8.00;99.90;;;;;;5017946;28;20060;-76
2023/12/20 07:11:59;;;;;;;9.02;2.58;;;8.00;99.90;;;;;;5026311;28;20458;-76
2023/12/20 07:14:26;;;;;;;6.53;2.08;;;8.00;99.90;;;;;;5032497;28;20053;-76
2023/12/20 07:16:51;;;;;;;6.20;1.50;;;8.00;99.90;;;;;;5031413;28;20033;-77
2023/12/20 07:19:17;;;;;;;15.75;1.75;;;8.00;99.90;;;;;;5023628;28;20540;-75
2023/12/20 07:21:43;;;;;;;7.20;1.98;;;8.00;99.90;;;;;;5016692;28;20091;-77
2023/12/20 07:24:09;;;;;;;10.93;3.13;;;8.00;99.90;;;;;;5033792;28;20037;-76
2023/12/20 07:26:35;;;;;;;8.30;1.33;;;8.00;99.90;;;;;;5037468;28;20033;-77
2023/12/20 07:29:01;;;;;;;5.78;2.17;;;8.00;99.90;;;;;;5031059;28;23462;-78
2023/12/20 07:31:27;;;;;;;6.60;1.17;;;8.10;99.90;;;;;;5030132;28;20096;-77
2023/12/20 07:33:52;;;;;;;4.13;1.75;;;8.10;99.90;;;;;;5029799;28;20125;-76
2023/12/20 07:36:19;;;;;;;3.80;1.15;;;8.00;99.90;;;;;;5013233;28;20041;-77
2023/12/20 07:38:45;;;;;;;13.45;2.28;;;8.10;99.90;;;;;;5012972;28;20076;-77
2023/12/20 07:41:11;;;;;;;6.57;1.60;;;8.00;99.90;;;;;;4967472;28;1256006;-77
2023/12/20 07:43:37;;;;;;;3.55;1.30;;;8.00;99.90;;;;;;5005792;28;20057;-77
2023/12/20 07:46:07;;;;;;;5.63;1.63;;;8.00;99.90;;;;;;5030195;28;20075;-76
2023/12/20 07:48:35;;;;;;;3.47;1.60;;;8.00;99.90;;;;;;5030611;28;20098;-75
2023/12/20 07:51:01;;;;;;;8.88;2.03;;;8.00;99.90;;;;;;5030666;28;20033;-76
2023/12/20 07:53:27;;;;;;;8.32;2.35;;;8.00;99.90;;;;;;5030810;28;20033;-76
2023/12/20 07:55:53;;;;;;;5.93;1.52;;;8.00;99.90;;;;;;5025320;28;20195;-75
2023/12/20 07:58:19;;;;;;;4.80;1.80;;;8.10;99.90;;;;;;5025224;28;20041;-76
2023/12/20 08:00:45;;;;;;;10.48;2.28;;;8.10;99.90;;;;;;5026057;28;20045;-75
2023/12/20 08:03:11;;;;;;;8.60;1.48;;;8.10;99.90;;;;;;5009872;28;20040;-77
2023/12/20 08:05:40;;;;;;;7.50;1.58;;;8.10;99.90;;;;;;5033857;28;20043;-78
2023/12/20 08:08:06;;;;;;;14.63;1.35;;;8.10;99.90;;;;;;5023448;28;20100;-76
2023/12/20 08:10:32;;;;;;;4.35;0.93;;;8.10;99.90;;;;;;5028968;28;20042;-78
2023/12/20 08:12:58;;;;;;;11.45;1.95;;;8.10;99.90;;;;;;5029980;28;20042;-76
2023/12/20 08:15:24;;;;;;;16.27;1.63;;;8.10;99.90;;;;;;5030065;28;20034;-76
2023/12/20 08:17:53;;;;;;;6.38;1.48;;;8.10;99.90;;;;;;5012423;28;20452;-76
2023/12/20 08:20:18;;;;;;;15.07;2.30;;;8.10;99.90;;;;;;5030139;28;20040;-75
2023/12/20 08:22:44;;;;;;;6.22;1.02;;;8.10;99.90;;;;;;5033848;28;20496;-76
2023/12/20 08:25:10;;;;;;;12.95;1.20;;;8.10;99.90;;;;;;5030565;28;20037;-77
2023/12/20 08:27:42;;;;;;;6.32;1.85;;;8.10;99.90;;;;;;5030071;28;20107;-76
2023/12/20 08:30:09;;;;;;;8.82;1.88;;;8.10;99.90;;;;;;5029201;28;20055;-76
2023/12/20 08:32:35;;;;;;;9.23;1.80;;;8.10;99.90;;;;;;5034059;28;20477;-77
2023/12/20 08:35:01;;;;;;;9.55;2.55;;;8.00;99.90;;;;;;5013717;28;20029;-77
2023/12/20 08:37:26;;;;;;;15.57;2.20;;;8.10;99.90;;;;;;5028191;28;20049;-76
2023/12/20 08:39:52;;;;;;;9.98;1.60;;;8.10;99.90;;;;;;5029843;28;20045;-76
2023/12/20 08:42:19;;;;;;;7.97;2.22;;;8.10;99.90;;;;;;5029320;28;20046;-79
2023/12/20 08:44:45;;;;;;;11.73;1.52;;;8.20;99.90;;;;;;5032241;28;20078;-78
2023/12/20 08:47:13;;;;;;;7.57;1.48;;;8.20;99.90;;;;;;5029229;28;20120;-75
2023/12/20 08:49:39;;;;;;;7.75;1.33;;;8.20;99.90;;;;;;5025660;28;20037;-73
2023/12/20 08:52:05;;;;;;;2.67;1.17;;;8.30;99.90;;;;;;5029268;28;20049;-75
2023/12/20 08:54:31;;;;;;;4.38;1.10;;;8.70;99.90;;;;;;5033670;28;20038;-74
2023/12/20 08:56:57;;;;;;;8.32;1.52;;;8.90;99.90;;;;;;5025519;28;20045;-74
2023/12/20 08:59:23;;;;;;;8.35;2.75;;;8.90;99.90;;;;;;5024997;28;20386;-74
2023/12/20 09:01:54;;;;;;;5.60;1.02;;;8.70;99.90;;;;;;5028742;28;20038;-73
2023/12/20 09:04:20;;;;;;;5.50;1.20;;;8.60;99.90;;;;;;5028484;28;20452;-75
2023/12/20 09:06:45;;;;;;;11.15;1.90;;;8.50;99.90;;;;;;5032441;28;20037;-73
2023/12/20 09:09:13;;;;;;;5.97;0.90;;;8.50;99.90;;;;;;5028386;28;20040;-73
2023/12/20 09:11:39;;;;;;;10.98;1.73;;;8.40;99.90;;;;;;5028341;28;20048;-72
2023/12/20 09:14:05;;;;;;;3.97;1.10;;;8.50;99.90;;;;;;5032108;28;20033;-74
2023/12/20 09:16:31;;;;;;;11.38;1.80;;;8.90;99.90;;;;;;5032390;28;20127;-73
2023/12/20 09:18:57;;;;;;;4.63;1.10;;;9.50;99.90;;;;;;5028558;28;20045;-73
2023/12/20 09:21:23;;;;;;;11.25;2.08;;;10.00;99.90;;;;;;5026429;28;20045;-74
2023/12/20 09:23:49;;;;;;;7.03;1.25;;;10.40;99.90;;;;;;5012440;28;20037;-75
2023/12/20 09:26:15;;;;;;;2.78;0.95;;;10.50;99.90;;;;;;5034860;28;20069;-72
2023/12/20 09:28:41;;;;;;;4.18;1.83;;;10.20;99.90;;;;;;5031814;28;20443;-73
2023/12/20 09:31:07;;;;;;;2.28;1.05;;;9.90;99.90;;;;;;5033806;28;20113;-72
2023/12/20 09:33:34;;;;;;;5.20;1.40;;;9.60;99.90;;;;;;5033357;28;20037;-72
2023/12/20 09:36:00;;;;;;;7.38;1.02;;;9.30;99.90;;;;;;5015841;28;20099;-72
2023/12/20 09:38:26;;;;;;;5.50;1.02;;;8.90;99.90;;;;;;5027515;28;20099;-72
2023/12/20 09:40:52;;;;;;;1.27;0.50;;;8.50;99.90;;;;;;5045358;28;20055;-74
2023/12/20 09:43:20;;;;;;;2.15;0.47;;;8.20;99.90;;;;;;5031994;28;20088;-73
2023/12/20 09:45:47;;;;;;;3.67;1.17;;;7.90;99.90;;;;;;5015183;28;20045;-74
2023/12/20 09:48:16;;;;;;;7.93;1.50;;;7.80;99.90;;;;;;5031941;28;20033;-74
2023/12/20 09:50:42;;;;;;;1.83;0.75;;;7.60;99.90;;;;;;5030892;28;20046;-74
2023/12/20 09:53:14;;;;;;;3.20;0.30;;;7.50;99.90;;;;;;5031970;28;20076;-73
2023/12/20 09:55:41;;;;;;;12.57;0.70;;;7.40;99.90;;;;;;5013061;28;20042;-71
2023/12/20 09:58:08;;;;;;;6.30;0.90;;;7.40;99.90;;;;;;5030558;28;20099;-71
2023/12/20 10:00:37;;;;;;;2.92;0.82;;;7.30;99.90;;;;;;5024553;28;20080;-71
2023/12/20 10:03:06;;;;;;;6.00;0.32;;;7.30;99.90;;;;;;5015114;28;20124;-73
2023/12/20 10:05:33;;;;;;;3.85;1.42;;;7.20;99.90;;;;;;5030830;28;20679;-74
2023/12/20 10:08:00;;;;;;;0.28;0.20;;;7.10;99.90;;;;;;5031139;28;20037;-73
2023/12/20 10:10:27;;;;;;;1.08;0.50;;;7.10;99.90;;;;;;5013209;28;20033;-73
2023/12/20 10:13:08;;;;;;;5.53;1.38;;;7.10;99.90;;;;;;5035644;28;20117;-73
2023/12/20 10:15:37;;;;;;;1.50;1.05;;;7.00;99.90;;;;;;5024595;28;20090;-74
2023/12/20 10:18:04;;;;;;;0.47;0.25;;;7.00;99.90;;;;;;5027479;28;20045;-73
2023/12/20 10:21:12;;;;;;;3.25;1.05;;;7.00;99.90;;;;;;5029984;28;20095;-72
2023/12/20 10:24:01;;;;;;;3.30;0.50;;;6.90;99.90;;;;;;5027384;28;20537;-73
2023/12/20 10:26:29;;;;;;;4.18;0.70;;;6.90;99.90;;;;;;5026298;28;20056;-73
2023/12/20 10:28:59;;;;;;;3.60;0.80;;;6.90;99.90;;;;;;5020676;28;20043;-75
2023/12/20 10:31:33;;;;;;;2.28;0.52;;;6.90;99.90;;;;;;5031059;28;20417;-72
2023/12/20 10:34:00;;;;;;;0.40;0.25;;;7.00;99.90;;;;;;5030412;28;20038;-70
2023/12/20 10:36:29;;;;;;;4.50;0.80;;;7.00;99.90;;;;;;5019125;28;20037;-72
2023/12/20 10:38:57;;;;;;;3.50;0.47;;;7.00;99.90;;;;;;5021534;28;20057;-72
2023/12/20 10:41:29;;;;;;;5.20;0.93;;;7.00;99.90;;;;;;5029716;28;20424;-74
2023/12/20 10:44:04;;;;;;;0.63;0.50;;;7.00;99.90;;;;;;5021757;28;20536;-75
2023/12/20 10:46:32;;;;;;;2.67;0.90;;;7.00;99.90;;;;;;5013749;28;20497;-73
2023/12/20 10:48:58;;;;;;;5.32;0.63;;;7.00;99.90;;;;;;5030726;28;20401;-73
2023/12/20 10:51:29;;;;;;;3.75;0.30;;;7.00;99.90;;;;;;5026310;28;20068;-74
2023/12/20 10:53:56;;;;;;;3.58;0.30;;;7.00;99.90;;;;;;5014335;28;20048;-73
2023/12/20 10:56:26;;;;;;;9.88;1.08;;;7.00;99.90;;;;;;5029622;28;20060;-74
2023/12/20 10:58:52;;;;;;;1.38;0.22;;;7.00;99.90;;;;;;5005867;28;20045;-73
2023/12/20 11:01:20;;;;;;;1.30;0.38;;;7.00;99.90;;;;;;5031738;28;20080;-75
2023/12/20 11:03:51;;;;;;;1.23;0.70;;;7.00;99.90;;;;;;5032251;28;20045;-74
2023/12/20 11:06:20;;;;;;;6.32;2.03;;;7.10;99.90;;;;;;5023088;28;20079;-73
2023/12/20 11:09:09;;;;;;;6.18;1.13;;;7.10;99.90;;;;;;5012786;28;20045;-74
2023/12/20 11:11:56;;;;;;;7.78;1.40;;;7.10;99.90;;;;;;5029321;28;20488;-74
2023/12/20 11:14:51;;;;;;;2.22;1.27;;;7.20;99.90;;;;;;5028466;28;20045;-74
2023/12/20 11:17:18;;;;;;;2.40;1.48;;;7.10;99.90;;;;;;5024098;28;20565;-73
2023/12/20 11:20:04;;;;;;;9.43;1.38;;;7.10;99.90;;;;;;5023881;28;20053;-74
2023/12/20 11:22:32;;;;;;;11.95;1.23;;;7.20;99.90;;;;;;5029744;28;20378;-74
2023/12/20 11:25:08;;;;;;;8.25;1.55;;;7.20;99.90;;;;;;5029077;28;20055;-73
2023/12/20 11:27:35;;;;;;;7.22;1.52;;;7.20;99.90;;;;;;5024958;28;20394;-73
2023/12/20 11:30:06;;;;;;;3.08;1.52;;;7.20;99.90;;;;;;5025670;28;20540;-72
2023/12/20 11:32:34;;;;;;;1.48;0.55;;;7.20;99.90;;;;;;5012704;28;20514;-72
2023/12/20 11:35:16;;;;;;;4.53;0.65;;;7.20;99.90;;;;;;5013179;28;20049;-73
2023/12/20 11:37:42;;;;;;;3.05;1.20;;;7.30;99.90;;;;;;5027727;28;20045;-72
2023/12/20 11:40:14;;;;;;;7.05;1.23;;;7.30;99.90;;;;;;5025900;28;20045;-72
2023/12/20 11:42:41;;;;;;;3.15;0.70;;;7.30;99.90;;;;;;5043844;28;20075;-72
2023/12/20 11:45:15;;;;;;;4.32;0.70;;;7.30;99.90;;;;;;5053120;28;23621;-72
2023/12/20 11:47:45;;;;;;;2.72;0.57;;;7.30;99.90;;;;;;5032026;28;20040;-72
2023/12/20 11:50:11;;;;;;;0.30;0.25;;;7.30;99.90;;;;;;5047774;28;20036;-71
2023/12/20 11:52:37;;;;;;;7.35;0.95;;;7.30;99.90;;;;;;5036236;28;20135;-72
2023/12/20 11:55:04;;;;;;;5.38;0.90;;;7.30;99.90;;;;;;5052841;28;20469;-72
2023/12/20 11:57:31;;;;;;;3.15;0.50;;;7.30;99.90;;;;;;5036410;28;20068;-72
2023/12/20 11:59:57;;;;;;;2.00;0.88;;;7.30;99.90;;;;;;5048224;28;20557;-72
2023/12/20 12:02:23;;;;;;;3.10;0.35;;;7.30;99.90;;;;;;5051204;28;20037;-71
2023/12/20 12:05:11;;;;;;;1.90;0.28;;;7.30;99.90;;;;;;5036082;28;20094;-72
2023/12/20 12:07:37;;;;;;;4.68;1.15;;;7.20;99.90;;;;;;5027821;28;20045;-71
2023/12/20 12:10:03;;;;;;;1.20;0.55;;;7.20;99.90;;;;;;5044118;28;20043;-71
2023/12/20 12:12:30;;;;;;;3.53;0.98;;;7.20;99.90;;;;;;5052400;28;20044;-72
2023/12/20 12:15:15;;;;;;;4.60;1.50;;;7.10;99.90;;;;;;5046856;28;20044;-72
2023/12/20 12:17:41;;;;;;;1.60;0.70;;;7.00;99.90;;;;;;5053914;28;20044;-71
2023/12/20 12:20:09;;;;;;;6.45;1.65;;;7.00;99.90;;;;;;5029523;28;20106;-72
2023/12/20 12:22:36;;;;;;;2.75;0.43;;;7.00;99.90;;;;;;5039481;28;20493;-72
2023/12/20 12:25:13;;;;;;;5.93;0.57;;;6.90;99.90;;;;;;5038745;28;20114;-73
2023/12/20 12:27:43;;;;;;;0.88;0.25;;;6.90;99.90;;;;;;5052683;28;20106;-72
2023/12/20 12:30:09;;;;;;;;;;;6.90;99.90;;;;;;5037645;28;20040;-72
2023/12/20 12:32:36;;;;;;;1.20;1.10;;;6.80;99.90;;;;;;5052168;28;19925;-73
2023/12/20 12:35:06;;;;;;;6.18;1.17;;;6.80;99.90;;;;;;5025446;28;20108;-73
2023/12/20 12:37:33;;;;;;;;;;;6.80;99.90;;;;;;5054046;28;20036;-73
2023/12/20 12:39:59;;;;;;;1.20;0.60;;;6.80;99.90;;;;;;5037881;28;19920;-73
2023/12/20 12:42:28;;;;;;;2.92;0.40;;;6.80;99.90;;;;;;5043701;28;20056;-73
2023/12/20 12:44:56;;;;;;;0.63;0.40;;;6.70;99.90;;;;;;5042205;28;20048;-73
2023/12/20 12:47:22;;;;;;;0.95;0.38;;;6.70;99.90;;;;;;5042887;28;20047;-73
2023/12/20 12:49:51;;;;;;;3.35;0.77;;;6.70;99.90;;;;;;5058964;28;20038;-73
2023/12/20 12:52:17;;;;;;;2.60;0.43;;;6.70;99.90;;;;;;5043340;28;20049;-73
2023/12/20 12:54:44;;;;;;;5.93;0.52;;;6.70;99.90;;;;;;5045277;28;20496;-73
2023/12/20 12:57:11;;;;;;;4.80;0.63;;;6.70;99.90;;;;;;5060031;28;20123;-73